sensor_id;sensor_type;location;lat;lon;timestamp;P1;durP1;ratioP1;P2;durP2;ratioP2
17812;SDS011;9030;50.792;8.320;2023-05-07T00:00:18;7.05;;;3.13;;
17812;SDS011;9030;50.792;8.320;2023-05-07T00:02:45;7.93;;;2.88;;
17812;SDS011;9030;50.792;8.320;2023-05-07T00:05:12;5.20;;;3.10;;
17812;SDS011;9030;50.792;8.320;2023-05-07T00:07:39;5.95;;;3.17;;
17812;SDS011;9030;50.792;8.320;2023-05-07T00:10:06;9.77;;;3.40;;
17812;SDS011;9030;50.792;8.320;2023-05-07T00:12:34;6.32;;;3.13;;
17812;SDS011;9030;50.792;8.320;2023-05-07T00:15:01;9.52;;;3.85;;
17812;SDS011;9030;50.792;8.320;2023-05-07T00:17:29;6.25;;;3.63;;
17812;SDS011;9030;50.792;8.320;2023-05-07T00:19:56;6.30;;;3.40;;
17812;SDS011;9030;50.792;8.320;2023-05-07T00:22:22;8.60;;;3.55;;
17812;SDS011;9030;50.792;8.320;2023-05-07T00:24:49;7.80;;;3.60;;
17812;SDS011;9030;50.792;8.320;2023-05-07T00:27:16;4.53;;;2.88;;
17812;SDS011;9030;50.792;8.320;2023-05-07T00:29:42;6.80;;;3.75;;
17812;SDS011;9030;50.792;8.320;2023-05-07T00:32:09;10.73;;;4.28;;
17812;SDS011;9030;50.792;8.320;2023-05-07T00:34:37;5.85;;;3.83;;
17812;SDS011;9030;50.792;8.320;2023-05-07T00:37:04;7.55;;;3.30;;
17812;SDS011;9030;50.792;8.320;2023-05-07T00:39:32;7.18;;;3.70;;
17812;SDS011;9030;50.792;8.320;2023-05-07T00:41:59;6.55;;;3.83;;
17812;SDS011;9030;50.792;8.320;2023-05-07T00:44:26;6.80;;;3.50;;
17812;SDS011;9030;50.792;8.320;2023-05-07T00:46:53;6.13;;;3.28;;
17812;SDS011;9030;50.792;8.320;2023-05-07T00:49:20;9.70;;;3.83;;
17812;SDS011;9030;50.792;8.320;2023-05-07T00:51:48;7.55;;;3.03;;
17812;SDS011;9030;50.792;8.320;2023-05-07T00:54:16;7.30;;;4.15;;
17812;SDS011;9030;50.792;8.320;2023-05-07T00:56:43;5.70;;;3.30;;
17812;SDS011;9030;50.792;8.320;2023-05-07T00:59:10;4.18;;;2.97;;
17812;SDS011;9030;50.792;8.320;2023-05-07T01:01:37;8.77;;;3.45;;
17812;SDS011;9030;50.792;8.320;2023-05-07T01:04:03;7.88;;;3.88;;
17812;SDS011;9030;50.792;8.320;2023-05-07T01:06:30;6.10;;;3.28;;
17812;SDS011;9030;50.792;8.320;2023-05-07T01:08:59;6.43;;;3.08;;
17812;SDS011;9030;50.792;8.320;2023-05-07T01:11:26;4.95;;;3.33;;
17812;SDS011;9030;50.792;8.320;2023-05-07T01:13:54;5.38;;;3.00;;
17812;SDS011;9030;50.792;8.320;2023-05-07T01:16:20;6.10;;;3.80;;
17812;SDS011;9030;50.792;8.320;2023-05-07T01:18:47;5.20;;;3.55;;
17812;SDS011;9030;50.792;8.320;2023-05-07T01:21:14;12.68;;;3.97;;
17812;SDS011;9030;50.792;8.320;2023-05-07T01:23:44;9.13;;;4.60;;
17812;SDS011;9030;50.792;8.320;2023-05-07T01:26:11;6.15;;;3.35;;
17812;SDS011;9030;50.792;8.320;2023-05-07T01:28:37;9.73;;;3.78;;
17812;SDS011;9030;50.792;8.320;2023-05-07T01:31:04;7.30;;;4.68;;
17812;SDS011;9030;50.792;8.320;2023-05-07T01:33:32;9.23;;;4.97;;
17812;SDS011;9030;50.792;8.320;2023-05-07T01:36:01;7.57;;;5.07;;
17812;SDS011;9030;50.792;8.320;2023-05-07T01:38:31;8.00;;;5.47;;
17812;SDS011;9030;50.792;8.320;2023-05-07T01:40:59;6.35;;;4.50;;
17812;SDS011;9030;50.792;8.320;2023-05-07T01:43:27;6.50;;;4.57;;
17812;SDS011;9030;50.792;8.320;2023-05-07T01:45:55;7.95;;;3.53;;
17812;SDS011;9030;50.792;8.320;2023-05-07T01:48:23;7.88;;;4.43;;
17812;SDS011;9030;50.792;8.320;2023-05-07T01:50:50;9.27;;;4.68;;
17812;SDS011;9030;50.792;8.320;2023-05-07T01:53:17;8.73;;;3.95;;
17812;SDS011;9030;50.792;8.320;2023-05-07T01:55:44;6.22;;;3.35;;
17812;SDS011;9030;50.792;8.320;2023-05-07T01:58:12;7.25;;;3.35;;
17812;SDS011;9030;50.792;8.320;2023-05-07T02:00:39;7.65;;;3.63;;
17812;SDS011;9030;50.792;8.320;2023-05-07T02:03:06;7.50;;;4.57;;
17812;SDS011;9030;50.792;8.320;2023-05-07T02:05:33;8.68;;;4.18;;
17812;SDS011;9030;50.792;8.320;2023-05-07T02:08:00;8.93;;;4.45;;
17812;SDS011;9030;50.792;8.320;2023-05-07T02:10:27;10.05;;;4.53;;
17812;SDS011;9030;50.792;8.320;2023-05-07T02:12:53;9.00;;;4.43;;
17812;SDS011;9030;50.792;8.320;2023-05-07T02:15:21;9.90;;;4.75;;
17812;SDS011;9030;50.792;8.320;2023-05-07T02:17:58;7.85;;;4.50;;
17812;SDS011;9030;50.792;8.320;2023-05-07T02:20:25;15.50;;;3.75;;
17812;SDS011;9030;50.792;8.320;2023-05-07T02:22:52;8.23;;;4.57;;
17812;SDS011;9030;50.792;8.320;2023-05-07T02:25:19;7.00;;;4.40;;
17812;SDS011;9030;50.792;8.320;2023-05-07T02:27:46;10.65;;;4.75;;
17812;SDS011;9030;50.792;8.320;2023-05-07T02:30:13;8.75;;;4.60;;
17812;SDS011;9030;50.792;8.320;2023-05-07T02:32:42;7.57;;;5.03;;
17812;SDS011;9030;50.792;8.320;2023-05-07T02:35:08;9.23;;;4.28;;
17812;SDS011;9030;50.792;8.320;2023-05-07T02:37:35;8.30;;;4.85;;
17812;SDS011;9030;50.792;8.320;2023-05-07T02:40:02;8.77;;;5.28;;
17812;SDS011;9030;50.792;8.320;2023-05-07T02:42:29;12.18;;;5.53;;
17812;SDS011;9030;50.792;8.320;2023-05-07T02:44:56;8.65;;;5.22;;
17812;SDS011;9030;50.792;8.320;2023-05-07T02:47:23;12.68;;;5.82;;
17812;SDS011;9030;50.792;8.320;2023-05-07T02:49:53;7.93;;;5.40;;
17812;SDS011;9030;50.792;8.320;2023-05-07T02:52:19;7.03;;;4.63;;
17812;SDS011;9030;50.792;8.320;2023-05-07T02:54:46;7.65;;;4.85;;
17812;SDS011;9030;50.792;8.320;2023-05-07T02:57:13;7.30;;;4.57;;
17812;SDS011;9030;50.792;8.320;2023-05-07T02:59:40;7.85;;;4.95;;
17812;SDS011;9030;50.792;8.320;2023-05-07T03:02:07;8.35;;;4.95;;
17812;SDS011;9030;50.792;8.320;2023-05-07T03:04:35;7.40;;;4.85;;
17812;SDS011;9030;50.792;8.320;2023-05-07T03:07:03;7.22;;;5.10;;
17812;SDS011;9030;50.792;8.320;2023-05-07T03:09:30;8.25;;;4.75;;
17812;SDS011;9030;50.792;8.320;2023-05-07T03:11:57;10.48;;;5.90;;
17812;SDS011;9030;50.792;8.320;2023-05-07T03:14:24;9.30;;;5.78;;
17812;SDS011;9030;50.792;8.320;2023-05-07T03:16:50;7.55;;;5.50;;
17812;SDS011;9030;50.792;8.320;2023-05-07T03:19:17;9.52;;;6.32;;
17812;SDS011;9030;50.792;8.320;2023-05-07T03:21:44;14.10;;;6.40;;
17812;SDS011;9030;50.792;8.320;2023-05-07T03:24:12;12.90;;;6.00;;
17812;SDS011;9030;50.792;8.320;2023-05-07T03:26:38;8.52;;;5.57;;
17812;SDS011;9030;50.792;8.320;2023-05-07T03:29:05;10.63;;;6.38;;
17812;SDS011;9030;50.792;8.320;2023-05-07T03:31:32;17.65;;;6.57;;
17812;SDS011;9030;50.792;8.320;2023-05-07T03:33:58;11.23;;;6.95;;
17812;SDS011;9030;50.792;8.320;2023-05-07T03:36:25;6.93;;;5.35;;
17812;SDS011;9030;50.792;8.320;2023-05-07T03:38:52;9.38;;;7.13;;
17812;SDS011;9030;50.792;8.320;2023-05-07T03:41:20;11.07;;;6.80;;
17812;SDS011;9030;50.792;8.320;2023-05-07T03:43:47;9.57;;;6.35;;
17812;SDS011;9030;50.792;8.320;2023-05-07T03:46:14;12.65;;;8.32;;
17812;SDS011;9030;50.792;8.320;2023-05-07T03:48:40;11.63;;;7.35;;
17812;SDS011;9030;50.792;8.320;2023-05-07T03:51:07;11.82;;;8.07;;
17812;SDS011;9030;50.792;8.320;2023-05-07T03:53:34;11.63;;;7.45;;
17812;SDS011;9030;50.792;8.320;2023-05-07T03:56:01;13.40;;;8.70;;
17812;SDS011;9030;50.792;8.320;2023-05-07T03:58:29;12.95;;;7.78;;
17812;SDS011;9030;50.792;8.320;2023-05-07T04:00:57;10.52;;;7.30;;
17812;SDS011;9030;50.792;8.320;2023-05-07T04:03:23;14.13;;;6.57;;
17812;SDS011;9030;50.792;8.320;2023-05-07T04:05:50;11.27;;;8.18;;
17812;SDS011;9030;50.792;8.320;2023-05-07T04:08:17;16.50;;;8.23;;
17812;SDS011;9030;50.792;8.320;2023-05-07T04:10:44;11.40;;;8.20;;
17812;SDS011;9030;50.792;8.320;2023-05-07T04:13:10;12.55;;;9.98;;
17812;SDS011;9030;50.792;8.320;2023-05-07T04:15:39;11.85;;;9.20;;
17812;SDS011;9030;50.792;8.320;2023-05-07T04:18:05;14.32;;;9.50;;
17812;SDS011;9030;50.792;8.320;2023-05-07T04:20:33;14.00;;;9.15;;
17812;SDS011;9030;50.792;8.320;2023-05-07T04:23:01;12.32;;;9.90;;
17812;SDS011;9030;50.792;8.320;2023-05-07T04:25:28;13.70;;;9.15;;
17812;SDS011;9030;50.792;8.320;2023-05-07T04:27:54;13.63;;;10.93;;
17812;SDS011;9030;50.792;8.320;2023-05-07T04:30:21;16.60;;;11.57;;
17812;SDS011;9030;50.792;8.320;2023-05-07T04:32:49;17.70;;;11.20;;
17812;SDS011;9030;50.792;8.320;2023-05-07T04:35:16;14.45;;;10.50;;
17812;SDS011;9030;50.792;8.320;2023-05-07T04:37:43;12.80;;;10.55;;
17812;SDS011;9030;50.792;8.320;2023-05-07T04:40:10;17.20;;;11.80;;
17812;SDS011;9030;50.792;8.320;2023-05-07T04:42:37;16.20;;;14.50;;
17812;SDS011;9030;50.792;8.320;2023-05-07T04:45:04;16.77;;;12.85;;
17812;SDS011;9030;50.792;8.320;2023-05-07T04:47:31;15.13;;;13.07;;
17812;SDS011;9030;50.792;8.320;2023-05-07T04:49:59;18.33;;;14.63;;
17812;SDS011;9030;50.792;8.320;2023-05-07T04:52:26;17.17;;;15.30;;
17812;SDS011;9030;50.792;8.320;2023-05-07T04:54:53;16.95;;;15.15;;
17812;SDS011;9030;50.792;8.320;2023-05-07T04:57:20;17.85;;;15.95;;
17812;SDS011;9030;50.792;8.320;2023-05-07T04:59:46;16.15;;;14.07;;
17812;SDS011;9030;50.792;8.320;2023-05-07T05:02:13;17.48;;;15.27;;
17812;SDS011;9030;50.792;8.320;2023-05-07T05:04:40;18.13;;;16.35;;
17812;SDS011;9030;50.792;8.320;2023-05-07T05:07:08;20.17;;;14.93;;
17812;SDS011;9030;50.792;8.320;2023-05-07T05:09:35;16.85;;;15.10;;
17812;SDS011;9030;50.792;8.320;2023-05-07T05:12:02;15.38;;;13.68;;
17812;SDS011;9030;50.792;8.320;2023-05-07T05:14:32;17.23;;;14.00;;
17812;SDS011;9030;50.792;8.320;2023-05-07T05:16:58;16.80;;;14.82;;
17812;SDS011;9030;50.792;8.320;2023-05-07T05:19:25;17.92;;;15.60;;
17812;SDS011;9030;50.792;8.320;2023-05-07T05:21:52;16.58;;;14.88;;
17812;SDS011;9030;50.792;8.320;2023-05-07T05:24:20;15.90;;;14.10;;
17812;SDS011;9030;50.792;8.320;2023-05-07T05:26:46;16.83;;;15.13;;
17812;SDS011;9030;50.792;8.320;2023-05-07T05:29:13;18.02;;;15.90;;
17812;SDS011;9030;50.792;8.320;2023-05-07T05:31:40;17.80;;;15.75;;
17812;SDS011;9030;50.792;8.320;2023-05-07T05:34:07;17.90;;;16.10;;
17812;SDS011;9030;50.792;8.320;2023-05-07T05:36:33;18.00;;;16.10;;
17812;SDS011;9030;50.792;8.320;2023-05-07T05:39:00;19.35;;;16.25;;
17812;SDS011;9030;50.792;8.320;2023-05-07T05:41:28;16.80;;;15.13;;
17812;SDS011;9030;50.792;8.320;2023-05-07T05:43:55;17.88;;;16.08;;
17812;SDS011;9030;50.792;8.320;2023-05-07T05:46:22;18.15;;;16.17;;
17812;SDS011;9030;50.792;8.320;2023-05-07T05:48:49;22.52;;;20.42;;
17812;SDS011;9030;50.792;8.320;2023-05-07T05:51:15;19.80;;;17.67;;
17812;SDS011;9030;50.792;8.320;2023-05-07T05:53:42;20.42;;;18.30;;
17812;SDS011;9030;50.792;8.320;2023-05-07T05:56:09;18.50;;;16.63;;
17812;SDS011;9030;50.792;8.320;2023-05-07T05:58:37;19.48;;;17.58;;
17812;SDS011;9030;50.792;8.320;2023-05-07T06:01:04;20.77;;;18.67;;
17812;SDS011;9030;50.792;8.320;2023-05-07T06:03:31;20.50;;;18.30;;
17812;SDS011;9030;50.792;8.320;2023-05-07T06:05:58;20.02;;;18.02;;
17812;SDS011;9030;50.792;8.320;2023-05-07T06:08:25;21.20;;;19.10;;
17812;SDS011;9030;50.792;8.320;2023-05-07T06:10:54;21.38;;;19.38;;
17812;SDS011;9030;50.792;8.320;2023-05-07T06:13:22;21.58;;;19.52;;
17812;SDS011;9030;50.792;8.320;2023-05-07T06:15:50;20.75;;;18.65;;
17812;SDS011;9030;50.792;8.320;2023-05-07T06:18:16;20.10;;;18.10;;
17812;SDS011;9030;50.792;8.320;2023-05-07T06:20:43;20.63;;;18.63;;
17812;SDS011;9030;50.792;8.320;2023-05-07T06:23:10;21.10;;;19.20;;
17812;SDS011;9030;50.792;8.320;2023-05-07T06:25:37;22.10;;;19.58;;
17812;SDS011;9030;50.792;8.320;2023-05-07T06:28:03;20.90;;;18.88;;
17812;SDS011;9030;50.792;8.320;2023-05-07T06:30:30;21.15;;;19.02;;
17812;SDS011;9030;50.792;8.320;2023-05-07T06:32:58;22.15;;;20.15;;
17812;SDS011;9030;50.792;8.320;2023-05-07T06:35:25;21.88;;;19.67;;
17812;SDS011;9030;50.792;8.320;2023-05-07T06:37:51;21.40;;;19.48;;
17812;SDS011;9030;50.792;8.320;2023-05-07T06:40:18;21.60;;;19.58;;
17812;SDS011;9030;50.792;8.320;2023-05-07T06:42:45;19.05;;;17.33;;
17812;SDS011;9030;50.792;8.320;2023-05-07T06:45:11;20.25;;;18.13;;
17812;SDS011;9030;50.792;8.320;2023-05-07T06:47:38;20.23;;;18.13;;
17812;SDS011;9030;50.792;8.320;2023-05-07T06:50:07;19.77;;;17.65;;
17812;SDS011;9030;50.792;8.320;2023-05-07T06:52:34;20.33;;;18.17;;
17812;SDS011;9030;50.792;8.320;2023-05-07T06:55:01;19.83;;;17.83;;
17812;SDS011;9030;50.792;8.320;2023-05-07T06:57:28;21.52;;;19.42;;
17812;SDS011;9030;50.792;8.320;2023-05-07T06:59:55;19.85;;;17.85;;
17812;SDS011;9030;50.792;8.320;2023-05-07T07:02:21;20.05;;;18.05;;
17812;SDS011;9030;50.792;8.320;2023-05-07T07:04:48;20.77;;;18.73;;
17812;SDS011;9030;50.792;8.320;2023-05-07T07:07:16;20.02;;;18.23;;
17812;SDS011;9030;50.792;8.320;2023-05-07T07:09:43;19.63;;;17.75;;
17812;SDS011;9030;50.792;8.320;2023-05-07T07:12:10;18.95;;;17.00;;
17812;SDS011;9030;50.792;8.320;2023-05-07T07:14:36;17.60;;;15.90;;
17812;SDS011;9030;50.792;8.320;2023-05-07T07:17:03;20.10;;;17.77;;
17812;SDS011;9030;50.792;8.320;2023-05-07T07:19:30;20.48;;;18.38;;
17812;SDS011;9030;50.792;8.320;2023-05-07T07:21:57;18.58;;;16.70;;
17812;SDS011;9030;50.792;8.320;2023-05-07T07:24:25;18.50;;;16.70;;
17812;SDS011;9030;50.792;8.320;2023-05-07T07:26:52;17.42;;;15.73;;
17812;SDS011;9030;50.792;8.320;2023-05-07T07:29:20;19.00;;;17.13;;
17812;SDS011;9030;50.792;8.320;2023-05-07T07:31:47;20.20;;;18.17;;
17812;SDS011;9030;50.792;8.320;2023-05-07T07:34:14;18.08;;;16.25;;
17812;SDS011;9030;50.792;8.320;2023-05-07T07:36:41;19.40;;;17.48;;
17812;SDS011;9030;50.792;8.320;2023-05-07T07:39:08;18.63;;;16.83;;
17812;SDS011;9030;50.792;8.320;2023-05-07T07:41:36;20.65;;;16.38;;
17812;SDS011;9030;50.792;8.320;2023-05-07T07:44:03;21.50;;;16.05;;
17812;SDS011;9030;50.792;8.320;2023-05-07T07:46:32;18.48;;;16.48;;
17812;SDS011;9030;50.792;8.320;2023-05-07T07:48:59;17.67;;;15.98;;
17812;SDS011;9030;50.792;8.320;2023-05-07T07:51:26;17.83;;;16.02;;
17812;SDS011;9030;50.792;8.320;2023-05-07T07:53:52;16.00;;;14.45;;
17812;SDS011;9030;50.792;8.320;2023-05-07T07:56:19;19.85;;;18.00;;
17812;SDS011;9030;50.792;8.320;2023-05-07T07:58:48;18.58;;;16.63;;
17812;SDS011;9030;50.792;8.320;2023-05-07T08:01:15;18.95;;;17.13;;
17812;SDS011;9030;50.792;8.320;2023-05-07T08:03:42;18.92;;;17.13;;
17812;SDS011;9030;50.792;8.320;2023-05-07T08:06:08;19.52;;;17.55;;
17812;SDS011;9030;50.792;8.320;2023-05-07T08:08:35;19.35;;;17.45;;
17812;SDS011;9030;50.792;8.320;2023-05-07T08:11:02;21.45;;;19.25;;
17812;SDS011;9030;50.792;8.320;2023-05-07T08:13:29;19.42;;;17.60;;
17812;SDS011;9030;50.792;8.320;2023-05-07T08:15:57;20.98;;;18.77;;
17812;SDS011;9030;50.792;8.320;2023-05-07T08:18:24;21.35;;;19.35;;
17812;SDS011;9030;50.792;8.320;2023-05-07T08:20:53;22.15;;;19.77;;
17812;SDS011;9030;50.792;8.320;2023-05-07T08:23:20;21.05;;;18.88;;
17812;SDS011;9030;50.792;8.320;2023-05-07T08:25:46;19.95;;;17.85;;
17812;SDS011;9030;50.792;8.320;2023-05-07T08:28:13;20.27;;;18.27;;
17812;SDS011;9030;50.792;8.320;2023-05-07T08:30:40;21.20;;;18.77;;
17812;SDS011;9030;50.792;8.320;2023-05-07T08:33:09;19.88;;;17.88;;
17812;SDS011;9030;50.792;8.320;2023-05-07T08:35:36;22.50;;;20.35;;
17812;SDS011;9030;50.792;8.320;2023-05-07T08:38:02;19.48;;;17.67;;
17812;SDS011;9030;50.792;8.320;2023-05-07T08:40:29;21.17;;;19.10;;
17812;SDS011;9030;50.792;8.320;2023-05-07T08:43:02;20.38;;;18.48;;
17812;SDS011;9030;50.792;8.320;2023-05-07T08:45:32;22.88;;;20.50;;
17812;SDS011;9030;50.792;8.320;2023-05-07T08:48:01;23.88;;;21.63;;
17812;SDS011;9030;50.792;8.320;2023-05-07T08:50:30;21.83;;;19.88;;
17812;SDS011;9030;50.792;8.320;2023-05-07T08:52:57;21.38;;;19.38;;
17812;SDS011;9030;50.792;8.320;2023-05-07T08:55:25;21.63;;;19.48;;
17812;SDS011;9030;50.792;8.320;2023-05-07T08:57:51;23.88;;;21.52;;
17812;SDS011;9030;50.792;8.320;2023-05-07T09:00:18;23.02;;;21.00;;
17812;SDS011;9030;50.792;8.320;2023-05-07T09:02:45;26.13;;;23.73;;
17812;SDS011;9030;50.792;8.320;2023-05-07T09:05:12;21.95;;;19.85;;
17812;SDS011;9030;50.792;8.320;2023-05-07T09:07:40;23.55;;;21.25;;
17812;SDS011;9030;50.792;8.320;2023-05-07T09:10:07;21.98;;;19.90;;
17812;SDS011;9030;50.792;8.320;2023-05-07T09:12:35;21.17;;;19.17;;
17812;SDS011;9030;50.792;8.320;2023-05-07T09:15:01;20.30;;;18.20;;
17812;SDS011;9030;50.792;8.320;2023-05-07T09:17:28;20.60;;;18.63;;
17812;SDS011;9030;50.792;8.320;2023-05-07T09:19:55;22.38;;;20.00;;
17812;SDS011;9030;50.792;8.320;2023-05-07T09:22:22;21.73;;;19.63;;
17812;SDS011;9030;50.792;8.320;2023-05-07T09:24:52;22.17;;;19.45;;
17812;SDS011;9030;50.792;8.320;2023-05-07T09:27:18;21.15;;;19.10;;
17812;SDS011;9030;50.792;8.320;2023-05-07T09:29:45;23.88;;;21.52;;
17812;SDS011;9030;50.792;8.320;2023-05-07T09:32:12;22.00;;;19.80;;
17812;SDS011;9030;50.792;8.320;2023-05-07T09:34:41;23.08;;;20.73;;
17812;SDS011;9030;50.792;8.320;2023-05-07T09:37:08;21.60;;;19.40;;
17812;SDS011;9030;50.792;8.320;2023-05-07T09:39:41;21.23;;;19.23;;
17812;SDS011;9030;50.792;8.320;2023-05-07T09:42:11;21.83;;;19.45;;
17812;SDS011;9030;50.792;8.320;2023-05-07T09:44:39;24.30;;;21.90;;
17812;SDS011;9030;50.792;8.320;2023-05-07T09:47:07;21.77;;;19.58;;
17812;SDS011;9030;50.792;8.320;2023-05-07T09:49:35;22.83;;;20.73;;
17812;SDS011;9030;50.792;8.320;2023-05-07T09:52:03;21.25;;;19.17;;
17812;SDS011;9030;50.792;8.320;2023-05-07T09:54:33;24.70;;;22.27;;
17812;SDS011;9030;50.792;8.320;2023-05-07T09:57:03;21.95;;;19.42;;
17812;SDS011;9030;50.792;8.320;2023-05-07T09:59:32;21.05;;;18.98;;
17812;SDS011;9030;50.792;8.320;2023-05-07T10:02:00;21.35;;;19.35;;
17812;SDS011;9030;50.792;8.320;2023-05-07T10:04:28;19.65;;;17.85;;
17812;SDS011;9030;50.792;8.320;2023-05-07T10:06:56;21.83;;;19.83;;
17812;SDS011;9030;50.792;8.320;2023-05-07T10:09:25;21.40;;;19.40;;
17812;SDS011;9030;50.792;8.320;2023-05-07T10:11:52;22.55;;;20.35;;
17812;SDS011;9030;50.792;8.320;2023-05-07T10:14:20;25.52;;;20.77;;
17812;SDS011;9030;50.792;8.320;2023-05-07T10:16:48;20.13;;;18.02;;
17812;SDS011;9030;50.792;8.320;2023-05-07T10:19:15;21.38;;;19.42;;
17812;SDS011;9030;50.792;8.320;2023-05-07T10:21:44;21.02;;;19.00;;
17812;SDS011;9030;50.792;8.320;2023-05-07T10:24:19;20.05;;;17.95;;
17812;SDS011;9030;50.792;8.320;2023-05-07T10:26:48;21.25;;;19.10;;
17812;SDS011;9030;50.792;8.320;2023-05-07T10:29:18;22.25;;;18.15;;
17812;SDS011;9030;50.792;8.320;2023-05-07T10:31:58;18.85;;;16.98;;
17812;SDS011;9030;50.792;8.320;2023-05-07T10:34:29;20.00;;;17.02;;
17812;SDS011;9030;50.792;8.320;2023-05-07T10:37:01;17.58;;;15.75;;
17812;SDS011;9030;50.792;8.320;2023-05-07T10:39:29;18.85;;;17.05;;
17812;SDS011;9030;50.792;8.320;2023-05-07T10:41:56;18.45;;;16.65;;
17812;SDS011;9030;50.792;8.320;2023-05-07T10:44:32;22.35;;;17.58;;
17812;SDS011;9030;50.792;8.320;2023-05-07T10:47:05;18.45;;;16.55;;
17812;SDS011;9030;50.792;8.320;2023-05-07T10:49:34;18.83;;;17.00;;
17812;SDS011;9030;50.792;8.320;2023-05-07T10:52:10;19.10;;;17.13;;
17812;SDS011;9030;50.792;8.320;2023-05-07T10:54:38;18.45;;;16.63;;
17812;SDS011;9030;50.792;8.320;2023-05-07T11:00:04;17.73;;;15.93;;
17812;SDS011;9030;50.792;8.320;2023-05-07T11:03:11;20.42;;;16.75;;
17812;SDS011;9030;50.792;8.320;2023-05-07T11:05:39;18.55;;;15.55;;
17812;SDS011;9030;50.792;8.320;2023-05-07T11:08:07;16.55;;;14.13;;
17812;SDS011;9030;50.792;8.320;2023-05-07T11:10:47;17.40;;;14.85;;
17812;SDS011;9030;50.792;8.320;2023-05-07T11:13:40;17.80;;;14.00;;
17812;SDS011;9030;50.792;8.320;2023-05-07T11:16:20;14.30;;;12.57;;
17812;SDS011;9030;50.792;8.320;2023-05-07T11:18:48;14.80;;;12.85;;
17812;SDS011;9030;50.792;8.320;2023-05-07T11:21:31;16.02;;;13.32;;
17812;SDS011;9030;50.792;8.320;2023-05-07T11:24:00;15.63;;;12.98;;
17812;SDS011;9030;50.792;8.320;2023-05-07T11:26:28;17.35;;;12.32;;
17812;SDS011;9030;50.792;8.320;2023-05-07T11:28:56;15.88;;;12.68;;
17812;SDS011;9030;50.792;8.320;2023-05-07T11:31:27;14.75;;;11.48;;
17812;SDS011;9030;50.792;8.320;2023-05-07T11:33:55;14.65;;;10.90;;
17812;SDS011;9030;50.792;8.320;2023-05-07T11:36:22;11.93;;;10.45;;
17812;SDS011;9030;50.792;8.320;2023-05-07T11:38:50;13.10;;;10.13;;
17812;SDS011;9030;50.792;8.320;2023-05-07T11:41:16;11.43;;;9.13;;
17812;SDS011;9030;50.792;8.320;2023-05-07T11:43:57;13.90;;;10.40;;
17812;SDS011;9030;50.792;8.320;2023-05-07T11:46:26;14.00;;;10.48;;
17812;SDS011;9030;50.792;8.320;2023-05-07T11:48:55;12.20;;;9.68;;
17812;SDS011;9030;50.792;8.320;2023-05-07T11:51:23;13.80;;;9.20;;
17812;SDS011;9030;50.792;8.320;2023-05-07T11:53:52;12.60;;;10.30;;
17812;SDS011;9030;50.792;8.320;2023-05-07T11:56:19;12.45;;;9.07;;
17812;SDS011;9030;50.792;8.320;2023-05-07T11:58:47;11.63;;;9.20;;
17812;SDS011;9030;50.792;8.320;2023-05-07T12:01:14;14.45;;;9.85;;
17812;SDS011;9030;50.792;8.320;2023-05-07T12:03:44;14.15;;;9.23;;
17812;SDS011;9030;50.792;8.320;2023-05-07T12:06:12;10.75;;;8.30;;
17812;SDS011;9030;50.792;8.320;2023-05-07T12:08:41;11.00;;;8.27;;
17812;SDS011;9030;50.792;8.320;2023-05-07T12:11:08;13.30;;;7.90;;
17812;SDS011;9030;50.792;8.320;2023-05-07T12:13:38;10.10;;;7.18;;
17812;SDS011;9030;50.792;8.320;2023-05-07T12:16:05;12.13;;;8.00;;
17812;SDS011;9030;50.792;8.320;2023-05-07T12:18:33;12.15;;;7.78;;
17812;SDS011;9030;50.792;8.320;2023-05-07T12:21:02;10.70;;;7.03;;
17812;SDS011;9030;50.792;8.320;2023-05-07T12:23:31;11.63;;;5.60;;
17812;SDS011;9030;50.792;8.320;2023-05-07T12:25:58;9.00;;;5.70;;
17812;SDS011;9030;50.792;8.320;2023-05-07T12:28:25;12.52;;;7.38;;
17812;SDS011;9030;50.792;8.320;2023-05-07T12:30:52;10.77;;;7.28;;
17812;SDS011;9030;50.792;8.320;2023-05-07T12:33:23;11.32;;;6.97;;
17812;SDS011;9030;50.792;8.320;2023-05-07T12:35:52;11.32;;;7.47;;
17812;SDS011;9030;50.792;8.320;2023-05-07T12:38:21;11.38;;;7.03;;
17812;SDS011;9030;50.792;8.320;2023-05-07T12:40:48;12.02;;;7.22;;
17812;SDS011;9030;50.792;8.320;2023-05-07T12:43:17;11.55;;;7.13;;
17812;SDS011;9030;50.792;8.320;2023-05-07T12:45:44;10.43;;;6.20;;
17812;SDS011;9030;50.792;8.320;2023-05-07T12:48:11;13.35;;;8.30;;
17812;SDS011;9030;50.792;8.320;2023-05-07T12:50:38;11.25;;;8.55;;
17812;SDS011;9030;50.792;8.320;2023-05-07T12:53:05;10.10;;;6.97;;
17812;SDS011;9030;50.792;8.320;2023-05-07T12:55:41;8.95;;;6.07;;
17812;SDS011;9030;50.792;8.320;2023-05-07T12:58:15;12.20;;;7.28;;
17812;SDS011;9030;50.792;8.320;2023-05-07T13:00:43;12.20;;;8.65;;
17812;SDS011;9030;50.792;8.320;2023-05-07T13:03:10;9.07;;;7.40;;
17812;SDS011;9030;50.792;8.320;2023-05-07T13:05:37;11.63;;;8.20;;
17812;SDS011;9030;50.792;8.320;2023-05-07T13:08:04;11.70;;;8.30;;
17812;SDS011;9030;50.792;8.320;2023-05-07T13:10:30;11.25;;;7.30;;
17812;SDS011;9030;50.792;8.320;2023-05-07T13:13:00;11.07;;;6.75;;
17812;SDS011;9030;50.792;8.320;2023-05-07T13:15:27;10.82;;;7.78;;
17812;SDS011;9030;50.792;8.320;2023-05-07T13:17:53;12.32;;;8.90;;
17812;SDS011;9030;50.792;8.320;2023-05-07T13:20:20;11.75;;;6.88;;
17812;SDS011;9030;50.792;8.320;2023-05-07T13:22:47;9.57;;;7.10;;
17812;SDS011;9030;50.792;8.320;2023-05-07T13:25:14;10.60;;;6.95;;
17812;SDS011;9030;50.792;8.320;2023-05-07T13:27:41;11.55;;;7.57;;
17812;SDS011;9030;50.792;8.320;2023-05-07T13:30:09;14.10;;;8.30;;
17812;SDS011;9030;50.792;8.320;2023-05-07T13:32:36;12.95;;;8.13;;
17812;SDS011;9030;50.792;8.320;2023-05-07T13:35:03;11.80;;;8.18;;
17812;SDS011;9030;50.792;8.320;2023-05-07T13:37:31;14.38;;;8.07;;
17812;SDS011;9030;50.792;8.320;2023-05-07T13:39:57;10.80;;;6.93;;
17812;SDS011;9030;50.792;8.320;2023-05-07T13:42:24;10.23;;;6.65;;
17812;SDS011;9030;50.792;8.320;2023-05-07T13:44:51;9.07;;;6.20;;
17812;SDS011;9030;50.792;8.320;2023-05-07T13:47:19;10.90;;;6.60;;
17812;SDS011;9030;50.792;8.320;2023-05-07T13:49:45;8.25;;;5.63;;
17812;SDS011;9030;50.792;8.320;2023-05-07T13:52:14;8.05;;;5.80;;
17812;SDS011;9030;50.792;8.320;2023-05-07T13:54:41;9.45;;;5.50;;
17812;SDS011;9030;50.792;8.320;2023-05-07T13:57:07;11.05;;;6.32;;
17812;SDS011;9030;50.792;8.320;2023-05-07T13:59:34;8.90;;;6.05;;
17812;SDS011;9030;50.792;8.320;2023-05-07T14:02:01;11.20;;;6.63;;
17812;SDS011;9030;50.792;8.320;2023-05-07T14:04:30;9.60;;;5.53;;
17812;SDS011;9030;50.792;8.320;2023-05-07T14:06:57;8.73;;;5.90;;
17812;SDS011;9030;50.792;8.320;2023-05-07T14:09:23;8.45;;;5.57;;
17812;SDS011;9030;50.792;8.320;2023-05-07T14:11:50;9.70;;;6.47;;
17812;SDS011;9030;50.792;8.320;2023-05-07T14:14:17;8.50;;;5.95;;
17812;SDS011;9030;50.792;8.320;2023-05-07T14:16:44;8.65;;;5.65;;
17812;SDS011;9030;50.792;8.320;2023-05-07T14:19:11;10.50;;;5.82;;
17812;SDS011;9030;50.792;8.320;2023-05-07T14:21:39;10.18;;;5.78;;
17812;SDS011;9030;50.792;8.320;2023-05-07T14:24:07;10.65;;;5.88;;
17812;SDS011;9030;50.792;8.320;2023-05-07T14:26:34;10.00;;;5.90;;
17812;SDS011;9030;50.792;8.320;2023-05-07T14:29:01;10.82;;;5.82;;
17812;SDS011;9030;50.792;8.320;2023-05-07T14:31:28;10.15;;;5.53;;
17812;SDS011;9030;50.792;8.320;2023-05-07T14:33:54;7.85;;;5.80;;
17812;SDS011;9030;50.792;8.320;2023-05-07T14:36:22;8.80;;;5.72;;
17812;SDS011;9030;50.792;8.320;2023-05-07T14:38:52;8.90;;;5.10;;
17812;SDS011;9030;50.792;8.320;2023-05-07T14:41:19;8.60;;;4.95;;
17812;SDS011;9030;50.792;8.320;2023-05-07T14:43:46;7.70;;;5.45;;
17812;SDS011;9030;50.792;8.320;2023-05-07T14:46:15;11.63;;;5.72;;
17812;SDS011;9030;50.792;8.320;2023-05-07T14:48:42;9.88;;;5.55;;
17812;SDS011;9030;50.792;8.320;2023-05-07T14:51:10;9.93;;;5.22;;